createdAt,value
2019-01-27T00:02:05.354Z,7.10
2019-01-27T00:04:37.467Z,5.40
2019-01-27T00:07:08.953Z,4.93
2019-01-27T00:09:40.381Z,4.87
2019-01-27T00:12:11.979Z,6.53
2019-01-27T00:14:43.855Z,7.77
2019-01-27T00:17:16.743Z,3.60
2019-01-27T00:19:49.414Z,2.73
2019-01-27T00:22:21.371Z,5.37
2019-01-27T00:24:52.893Z,3.23
2019-01-27T00:27:24.707Z,3.43
2019-01-27T00:29:57.492Z,3.57
2019-01-27T00:32:29.307Z,3.50
2019-01-27T00:35:01.115Z,2.10
2019-01-27T00:37:32.762Z,3.47
2019-01-27T00:40:05.496Z,2.27
2019-01-27T00:42:38.528Z,2.47
2019-01-27T00:45:13.228Z,2.37
2019-01-27T00:47:44.739Z,2.67
2019-01-27T00:50:17.464Z,2.30
2019-01-27T00:52:48.878Z,2.13
2019-01-27T00:55:21.307Z,2.83
2019-01-27T00:57:53.545Z,2.27
2019-01-27T01:00:26.096Z,4.30
2019-01-27T01:02:58.114Z,2.50
2019-01-27T01:05:30.116Z,2.30
2019-01-27T01:08:01.832Z,5.23
2019-01-27T01:10:37.094Z,3.60
2019-01-27T01:13:09.027Z,2.07
2019-01-27T01:15:40.516Z,2.00
2019-01-27T01:18:13.456Z,2.27
2019-01-27T01:20:46.341Z,1.70
2019-01-27T01:23:17.688Z,1.80
2019-01-27T01:25:49.702Z,1.60
2019-01-27T01:28:22.444Z,1.77
2019-01-27T01:30:55.727Z,1.67
2019-01-27T01:33:28.265Z,1.70
2019-01-27T01:36:00.599Z,1.80
2019-01-27T01:38:32.354Z,2.00
2019-01-27T01:41:03.699Z,2.00
2019-01-27T01:43:36.667Z,2.00
2019-01-27T01:46:08.931Z,1.63
2019-01-27T01:48:40.479Z,1.70
2019-01-27T01:51:12.501Z,2.90
2019-01-27T01:53:44.291Z,2.00
2019-01-27T01:56:15.706Z,1.60
2019-01-27T01:58:47.219Z,1.70
2019-01-27T02:01:18.931Z,1.57
2019-01-27T02:03:50.243Z,1.93
2019-01-27T02:06:22.701Z,1.60
2019-01-27T02:08:54.105Z,1.93
2019-01-27T02:11:27.745Z,1.50
2019-01-27T02:13:59.071Z,1.70
2019-01-27T02:16:31.920Z,1.90
2019-01-27T02:19:03.806Z,1.87
2019-01-27T02:21:36.647Z,1.60
2019-01-27T02:24:09.719Z,1.93
2019-01-27T02:26:41.704Z,1.80
2019-01-27T02:29:14.771Z,1.83
2019-01-27T02:31:49.139Z,1.70
2019-01-27T02:34:20.902Z,1.60
2019-01-27T02:36:52.452Z,1.67
2019-01-27T02:39:27.254Z,1.70
2019-01-27T02:41:58.818Z,2.10
2019-01-27T02:44:30.594Z,1.70
2019-01-27T02:47:04.065Z,2.13
2019-01-27T02:49:36.955Z,1.63
2019-01-27T02:52:08.414Z,2.03
2019-01-27T02:54:40.179Z,1.33
2019-01-27T02:57:11.886Z,1.40
2019-01-27T02:59:43.588Z,1.47
2019-01-27T03:02:15.043Z,1.77
2019-01-27T03:04:46.440Z,1.63
2019-01-27T03:07:33.283Z,1.40
2019-01-27T03:10:07.246Z,1.80
2019-01-27T03:12:40.589Z,2.00
2019-01-27T03:15:15.363Z,1.93
2019-01-27T03:17:46.698Z,1.73
2019-01-27T03:20:18.590Z,1.67
2019-01-27T03:22:50.308Z,2.00
2019-01-27T03:25:22.278Z,2.83
2019-01-27T03:27:53.942Z,1.93
2019-01-27T03:30:25.747Z,2.07
2019-01-27T03:32:57.570Z,2.17
2019-01-27T03:35:29.088Z,2.50
2019-01-27T03:38:01.592Z,2.40
2019-01-27T03:40:33.133Z,2.17
2019-01-27T03:43:04.598Z,2.40
2019-01-27T03:45:36.471Z,2.40
2019-01-27T03:48:07.954Z,2.20
2019-01-27T03:50:39.611Z,2.33
2019-01-27T03:53:11.121Z,2.50
2019-01-27T03:55:42.573Z,2.43
2019-01-27T03:58:14.381Z,2.53
2019-01-27T04:00:46.397Z,2.43
2019-01-27T04:03:18.066Z,2.33
2019-01-27T04:05:53.178Z,2.00
2019-01-27T04:08:24.551Z,2.90
2019-01-27T04:10:56.050Z,2.30
2019-01-27T04:13:27.609Z,2.13
2019-01-27T04:16:00.120Z,2.67
2019-01-27T04:18:32.023Z,2.37
2019-01-27T04:21:03.413Z,2.30
2019-01-27T04:23:34.923Z,2.50
2019-01-27T04:26:06.477Z,2.17
2019-01-27T04:28:38.515Z,2.60
2019-01-27T04:31:10.055Z,2.70
2019-01-27T04:33:42.081Z,2.80
2019-01-27T04:36:13.981Z,2.87
2019-01-27T04:38:46.621Z,2.40
2019-01-27T04:41:19.607Z,2.70
2019-01-27T04:43:51.432Z,2.80
2019-01-27T04:46:23.025Z,2.80
2019-01-27T04:48:55.465Z,3.50
2019-01-27T04:51:26.899Z,2.77
2019-01-27T04:53:59.282Z,2.37
2019-01-27T04:56:31.257Z,2.30
2019-01-27T04:59:02.617Z,2.63
2019-01-27T05:01:36.214Z,2.13
2019-01-27T05:04:26.739Z,2.23
2019-01-27T05:06:59.350Z,2.50
2019-01-27T05:09:30.884Z,2.83
2019-01-27T05:12:02.584Z,2.10
2019-01-27T05:14:34.154Z,2.43
2019-01-27T05:17:06.215Z,2.27
2019-01-27T05:19:37.651Z,2.47
2019-01-27T05:22:09.173Z,2.30
2019-01-27T05:24:40.766Z,2.80
2019-01-27T05:27:13.836Z,2.10
2019-01-27T05:29:45.496Z,2.20
2019-01-27T05:32:17.288Z,2.80
2019-01-27T05:34:50.242Z,2.80
2019-01-27T05:37:21.898Z,2.63
2019-01-27T05:39:53.822Z,2.67
2019-01-27T05:42:25.393Z,2.57
2019-01-27T05:44:57.063Z,2.90
2019-01-27T05:47:28.503Z,2.63
2019-01-27T05:50:00.099Z,2.50
2019-01-27T05:52:32.080Z,2.50
2019-01-27T05:55:03.888Z,2.63
2019-01-27T05:57:35.494Z,2.67
2019-01-27T06:00:11.698Z,2.17
2019-01-27T06:02:43.413Z,2.50
2019-01-27T06:05:16.050Z,2.20
2019-01-27T06:07:49.690Z,1.83
2019-01-27T06:10:21.281Z,2.13
2019-01-27T06:12:52.870Z,1.97
2019-01-27T06:15:24.259Z,2.00
2019-01-27T06:17:55.681Z,1.70
2019-01-27T06:20:29.934Z,2.10
2019-01-27T06:23:01.715Z,1.93
2019-01-27T06:25:33.655Z,2.17
2019-01-27T06:28:05.207Z,1.90
2019-01-27T06:30:38.464Z,2.00
2019-01-27T06:33:25.746Z,2.80
2019-01-27T06:35:57.387Z,4.87
2019-01-27T06:38:30.607Z,2.00
2019-01-27T06:41:02.525Z,2.40
2019-01-27T06:43:34.018Z,2.33
2019-01-27T06:46:07.603Z,3.03
2019-01-27T06:48:39.131Z,2.90
2019-01-27T06:51:10.603Z,4.30
2019-01-27T06:53:42.219Z,3.97
2019-01-27T06:56:13.817Z,6.03
2019-01-27T06:59:03.045Z,2.17
2019-01-27T07:01:45.987Z,2.93
2019-01-27T07:04:28.637Z,2.87
2019-01-27T07:07:31.831Z,3.90
2019-01-27T07:10:32.169Z,1.70
2019-01-27T07:13:09.349Z,2.77
2019-01-27T07:16:15.307Z,3.60
2019-01-27T07:19:14.691Z,4.53
2019-01-27T07:22:14.429Z,3.20
2019-01-27T07:25:05.531Z,2.43
2019-01-27T07:27:57.295Z,2.73
2019-01-27T07:30:56.488Z,2.80
2019-01-27T07:33:46.218Z,2.50
2019-01-27T07:36:33.908Z,2.67
2019-01-27T07:39:44.632Z,2.40
2019-01-27T07:42:47.826Z,2.17
2019-01-27T07:45:29.290Z,2.00
2019-01-27T07:48:19.841Z,2.30
2019-01-27T07:51:09.295Z,2.13
2019-01-27T07:54:04.001Z,2.30
2019-01-27T07:57:03.525Z,2.10
2019-01-27T07:59:50.293Z,1.97
2019-01-27T08:02:35.691Z,2.67
2019-01-27T08:05:30.416Z,2.40
2019-01-27T08:08:23.575Z,2.73
2019-01-27T08:11:13.155Z,2.83
2019-01-27T08:14:16.033Z,2.90
2019-01-27T08:17:11.829Z,3.50
2019-01-27T08:19:50.671Z,3.10
2019-01-27T08:22:31.863Z,3.50
2019-01-27T08:25:22.302Z,3.70
2019-01-27T08:28:16.429Z,3.93
2019-01-27T08:30:57.070Z,3.20
2019-01-27T08:33:46.584Z,4.03
2019-01-27T08:36:49.292Z,3.43
2019-01-27T08:39:43.776Z,3.87
2019-01-27T08:42:31.583Z,4.63
2019-01-27T08:45:31.277Z,5.70
2019-01-27T08:48:04.706Z,3.90
2019-01-27T08:50:36.228Z,4.13
2019-01-27T08:53:09.108Z,3.60
2019-01-27T08:55:40.749Z,4.67
2019-01-27T08:58:12.282Z,3.97
2019-01-27T09:00:51.351Z,3.73
2019-01-27T09:03:32.354Z,4.23
2019-01-27T09:06:19.614Z,3.93
2019-01-27T09:09:13.233Z,3.87
2019-01-27T09:12:06.995Z,3.73
2019-01-27T09:14:44.640Z,4.17
2019-01-27T09:17:33.758Z,4.50
2019-01-27T09:20:22.868Z,4.63
2019-01-27T09:23:10.464Z,4.83
2019-01-27T09:26:02.788Z,4.83
2019-01-27T09:28:53.256Z,4.60
2019-01-27T09:31:44.079Z,4.10
2019-01-27T09:34:29.522Z,5.03
2019-01-27T09:37:28.895Z,5.00
2019-01-27T09:40:14.955Z,4.63
2019-01-27T09:42:58.410Z,4.50
2019-01-27T09:45:38.993Z,4.87
2019-01-27T09:48:29.703Z,5.37
2019-01-27T09:51:10.684Z,4.37
2019-01-27T09:53:55.209Z,3.30
2019-01-27T09:56:52.140Z,3.67
2019-01-27T09:59:48.596Z,1.97
2019-01-27T10:02:25.290Z,1.40
2019-01-27T10:05:02.913Z,1.40
2019-01-27T10:07:51.524Z,1.40
2019-01-27T10:10:42.001Z,1.80
2019-01-27T10:13:47.520Z,1.30
2019-01-27T10:16:33.779Z,1.20
2019-01-27T10:19:20.726Z,1.13
2019-01-27T10:22:13.974Z,0.80
2019-01-27T10:25:17.308Z,0.90
2019-01-27T10:28:01.017Z,0.80
2019-01-27T10:30:49.195Z,1.30
2019-01-27T10:33:51.777Z,1.37
2019-01-27T10:36:35.587Z,1.40
2019-01-27T10:39:28.783Z,1.70
2019-01-27T10:42:19.181Z,1.97
2019-01-27T10:45:10.646Z,2.20
2019-01-27T10:48:10.709Z,2.80
2019-01-27T10:50:56.351Z,2.93
2019-01-27T10:53:48.335Z,2.83
2019-01-27T10:56:40.081Z,3.47
2019-01-27T10:59:34.516Z,2.93
2019-01-27T11:02:36.733Z,3.20
2019-01-27T11:05:31.470Z,2.77
2019-01-27T11:08:21.091Z,2.90
2019-01-27T11:11:27.670Z,2.53
2019-01-27T11:14:23.869Z,2.90
2019-01-27T11:17:12.876Z,2.80
2019-01-27T11:19:49.892Z,3.40
2019-01-27T11:22:55.321Z,2.53
2019-01-27T11:25:36.280Z,3.40
2019-01-27T11:28:26.687Z,3.03
2019-01-27T11:31:24.223Z,3.63
2019-01-27T11:34:19.315Z,3.27
2019-01-27T11:37:12.903Z,3.40
2019-01-27T11:40:02.656Z,2.90
2019-01-27T11:42:53.237Z,3.37
2019-01-27T11:45:31.722Z,2.90
2019-01-27T11:48:17.633Z,2.83
2019-01-27T11:50:54.702Z,2.27
2019-01-27T11:53:26.329Z,3.37
2019-01-27T11:55:59.153Z,2.63
2019-01-27T11:58:30.909Z,2.10
2019-01-27T12:01:04.578Z,2.53
2019-01-27T12:03:36.333Z,2.87
2019-01-27T12:06:09.425Z,3.67
2019-01-27T12:08:42.122Z,2.40
2019-01-27T12:11:13.731Z,3.37
2019-01-27T12:13:46.930Z,3.13
2019-01-27T12:16:21.688Z,2.67
2019-01-27T12:18:53.024Z,2.63
2019-01-27T12:21:26.376Z,2.37
2019-01-27T12:23:57.779Z,3.20
2019-01-27T12:26:30.668Z,2.70
2019-01-27T12:29:02.207Z,3.13
2019-01-27T12:31:34.736Z,2.70
2019-01-27T12:34:07.214Z,2.50
2019-01-27T12:36:39.140Z,2.87
2019-01-27T12:39:15.726Z,2.27
2019-01-27T12:41:47.593Z,2.13
2019-01-27T12:44:22.091Z,1.97
2019-01-27T12:46:54.366Z,2.43
2019-01-27T12:49:26.037Z,2.53
2019-01-27T12:51:57.963Z,2.20
2019-01-27T12:54:29.608Z,2.40
2019-01-27T12:57:02.979Z,2.17
2019-01-27T12:59:34.838Z,2.20
2019-01-27T13:02:06.984Z,2.20
2019-01-27T13:04:38.419Z,1.80
2019-01-27T13:07:11.261Z,2.23
2019-01-27T13:09:43.038Z,1.77
2019-01-27T13:12:15.863Z,1.67
2019-01-27T13:14:47.325Z,2.50
2019-01-27T13:17:18.811Z,1.80
2019-01-27T13:19:57.626Z,2.20
2019-01-27T13:22:29.843Z,1.60
2019-01-27T13:25:01.602Z,1.90
2019-01-27T13:27:33.296Z,2.27
2019-01-27T13:30:06.736Z,1.87
2019-01-27T13:32:38.465Z,1.97
2019-01-27T13:35:10.239Z,1.73
2019-01-27T13:37:41.934Z,1.77
2019-01-27T13:40:17.855Z,1.60
2019-01-27T13:42:49.960Z,1.80
2019-01-27T13:45:24.184Z,2.00
2019-01-27T13:47:58.933Z,1.57
2019-01-27T13:50:30.972Z,1.30
2019-01-27T13:53:02.849Z,1.50
2019-01-27T13:55:34.734Z,2.07
2019-01-27T13:58:07.418Z,1.70
2019-01-27T14:00:39.572Z,1.20
2019-01-27T14:03:11.482Z,1.57
2019-01-27T14:05:43.717Z,1.70
2019-01-27T14:08:15.650Z,1.87
2019-01-27T14:10:47.127Z,1.50
2019-01-27T14:13:18.685Z,1.40
2019-01-27T14:15:53.374Z,1.67
2019-01-27T14:18:25.061Z,1.40
2019-01-27T14:20:56.770Z,1.30
2019-01-27T14:23:28.218Z,1.33
2019-01-27T14:25:59.718Z,1.63
2019-01-27T14:28:31.609Z,1.50
2019-01-27T14:31:07.030Z,1.40
2019-01-27T14:33:40.619Z,1.77
2019-01-27T14:36:12.981Z,1.30
2019-01-27T14:38:45.560Z,1.50
2019-01-27T14:41:17.152Z,1.67
2019-01-27T14:43:49.071Z,1.40
2019-01-27T14:46:21.686Z,1.20
2019-01-27T14:48:53.327Z,1.47
2019-01-27T14:51:26.490Z,1.33
2019-01-27T14:54:00.735Z,1.67
2019-01-27T14:56:32.149Z,1.33
2019-01-27T14:59:03.691Z,1.40
2019-01-27T15:01:35.451Z,1.73
2019-01-27T15:04:07.127Z,1.40
2019-01-27T15:06:38.829Z,1.37
2019-01-27T15:09:10.737Z,1.40
2019-01-27T15:11:43.513Z,1.80
2019-01-27T15:14:15.623Z,1.53
2019-01-27T15:16:47.176Z,1.30
2019-01-27T15:19:18.691Z,1.50
2019-01-27T15:21:50.137Z,1.87
2019-01-27T15:24:22.005Z,1.50
2019-01-27T15:26:54.778Z,1.63
2019-01-27T15:29:26.147Z,1.77
2019-01-27T15:31:58.847Z,1.50
2019-01-27T15:34:30.841Z,1.90
2019-01-27T15:37:02.633Z,1.87
2019-01-27T15:39:35.921Z,1.90
2019-01-27T15:42:07.970Z,1.73
2019-01-27T15:44:40.704Z,1.57
2019-01-27T15:47:12.574Z,2.00
2019-01-27T15:49:44.753Z,1.53
2019-01-27T15:52:16.237Z,1.67
2019-01-27T15:54:48.766Z,1.30
2019-01-27T15:57:21.064Z,1.50
2019-01-27T15:59:52.945Z,1.80
2019-01-27T16:02:25.939Z,1.70
2019-01-27T16:04:59.380Z,1.60
2019-01-27T16:07:31.145Z,1.77
2019-01-27T16:10:04.934Z,1.43
2019-01-27T16:12:36.911Z,1.87
2019-01-27T16:15:11.672Z,1.97
2019-01-27T16:17:43.477Z,2.13
2019-01-27T16:20:17.053Z,1.83
2019-01-27T16:23:13.541Z,2.10
2019-01-27T16:25:45.324Z,1.80
2019-01-27T16:28:17.473Z,2.00
2019-01-27T16:31:01.733Z,2.40
2019-01-27T16:33:41.791Z,2.50
2019-01-27T16:36:13.588Z,2.30
2019-01-27T16:38:45.334Z,2.40
2019-01-27T16:41:18.619Z,2.20
2019-01-27T16:43:51.589Z,2.50
2019-01-27T16:46:22.970Z,2.70
2019-01-27T16:48:57.066Z,2.50
2019-01-27T16:51:28.464Z,2.80
2019-01-27T16:54:00.162Z,2.83
2019-01-27T16:56:31.677Z,2.80
2019-01-27T16:59:03.989Z,3.07
2019-01-27T17:01:37.552Z,3.00
2019-01-27T17:04:09.034Z,2.50
2019-01-27T17:06:40.922Z,2.53
2019-01-27T17:09:14.152Z,2.90
2019-01-27T17:11:47.374Z,2.60
2019-01-27T17:14:19.345Z,3.27
2019-01-27T17:16:51.102Z,2.40
2019-01-27T17:19:22.584Z,2.13
2019-01-27T17:21:54.150Z,1.87
2019-01-27T17:24:25.665Z,2.03
2019-01-27T17:26:57.392Z,1.50
2019-01-27T17:29:30.561Z,1.10
2019-01-27T17:32:02.312Z,1.07
2019-01-27T17:34:33.999Z,1.47
2019-01-27T17:37:05.321Z,1.10
2019-01-27T17:39:38.711Z,1.27
2019-01-27T17:42:11.965Z,1.70
2019-01-27T17:44:44.973Z,1.90
2019-01-27T17:47:20.283Z,1.47
2019-01-27T17:49:52.053Z,1.43
2019-01-27T17:52:23.885Z,2.23
2019-01-27T17:54:55.628Z,2.10
2019-01-27T17:57:55.606Z,2.07
2019-01-27T18:00:44.985Z,2.17
2019-01-27T18:03:35.204Z,2.20
2019-01-27T18:06:15.445Z,1.47
2019-01-27T18:09:03.926Z,3.13
2019-01-27T18:11:43.800Z,2.27
2019-01-27T18:14:20.853Z,2.43
2019-01-27T18:16:53.691Z,3.00
2019-01-27T18:19:28.746Z,2.83
2019-01-27T18:22:02.465Z,2.27
2019-01-27T18:24:34.029Z,2.50
2019-01-27T18:27:06.737Z,2.33
2019-01-27T18:29:38.502Z,1.80
2019-01-27T18:32:12.166Z,2.10
2019-01-27T18:34:44.339Z,2.47
2019-01-27T18:37:15.632Z,1.70
2019-01-27T18:39:47.083Z,2.20
2019-01-27T18:42:19.635Z,2.20
2019-01-27T18:44:51.079Z,2.30
2019-01-27T18:47:22.827Z,2.37
2019-01-27T18:49:56.126Z,2.50
2019-01-27T18:52:31.377Z,2.60
2019-01-27T18:55:22.636Z,2.27
2019-01-27T18:58:13.734Z,2.70
2019-01-27T19:00:53.743Z,2.80
2019-01-27T19:03:34.160Z,3.00
2019-01-27T19:06:24.779Z,2.87
2019-01-27T19:09:33.346Z,2.97
2019-01-27T19:12:33.400Z,2.70
2019-01-27T19:15:40.830Z,2.33
2019-01-27T19:18:32.374Z,2.77
2019-01-27T19:21:31.472Z,2.80
2019-01-27T19:24:31.772Z,2.80
2019-01-27T19:27:20.700Z,2.27
2019-01-27T19:30:14.006Z,2.70
2019-01-27T19:33:16.483Z,3.23
2019-01-27T19:36:06.465Z,2.30
2019-01-27T19:39:00.018Z,1.90
2019-01-27T19:41:43.373Z,2.70
2019-01-27T19:44:25.085Z,2.40
2019-01-27T19:47:07.876Z,2.43
2019-01-27T19:49:50.691Z,2.10
2019-01-27T19:52:40.989Z,1.73
2019-01-27T19:55:28.420Z,1.97
2019-01-27T19:58:06.550Z,2.50
2019-01-27T20:00:56.764Z,2.57
2019-01-27T20:03:39.811Z,2.83
2019-01-27T20:06:41.672Z,2.83
2019-01-27T20:09:32.836Z,2.33
2019-01-27T20:12:23.652Z,2.00
2019-01-27T20:15:01.824Z,2.40
2019-01-27T20:17:52.935Z,3.50
2019-01-27T20:20:46.437Z,2.10
2019-01-27T20:23:39.894Z,1.97
2019-01-27T20:26:19.923Z,2.20
2019-01-27T20:29:15.052Z,1.97
2019-01-27T20:32:06.039Z,2.47
2019-01-27T20:35:04.464Z,2.27
2019-01-27T20:37:41.344Z,2.90
2019-01-27T20:40:34.098Z,2.30
2019-01-27T20:43:24.644Z,2.50
2019-01-27T20:46:18.440Z,2.53
2019-01-27T20:49:06.216Z,2.10
2019-01-27T20:51:59.771Z,2.23
2019-01-27T20:54:51.812Z,2.40
2019-01-27T20:57:36.985Z,2.73
2019-01-27T21:00:21.438Z,2.10
2019-01-27T21:03:11.098Z,2.63
2019-01-27T21:05:57.609Z,2.57
2019-01-27T21:08:54.456Z,1.93
2019-01-27T21:11:44.060Z,2.37
2019-01-27T21:14:35.839Z,2.87
2019-01-27T21:17:29.251Z,2.77
2019-01-27T21:20:10.394Z,1.90
2019-01-27T21:22:42.147Z,2.30
2019-01-27T21:25:14.396Z,1.80
2019-01-27T21:27:46.680Z,2.47
2019-01-27T21:30:19.572Z,2.57
2019-01-27T21:32:55.758Z,1.93
2019-01-27T21:35:25.097Z,2.10
2019-01-27T21:37:57.158Z,2.50
2019-01-27T21:40:29.431Z,2.00
2019-01-27T21:43:01.214Z,2.10
2019-01-27T21:45:32.905Z,2.20
2019-01-27T21:48:05.871Z,1.80
2019-01-27T21:50:37.372Z,2.13
2019-01-27T21:53:09.357Z,2.97
2019-01-27T21:55:41.417Z,2.20
2019-01-27T21:58:15.682Z,3.30
2019-01-27T22:00:47.463Z,1.93
2019-01-27T22:03:21.888Z,2.63
2019-01-27T22:05:54.778Z,2.47
2019-01-27T22:08:26.258Z,2.40
2019-01-27T22:10:57.815Z,2.60
2019-01-27T22:13:29.719Z,2.17
2019-01-27T22:16:02.528Z,2.37
2019-01-27T22:18:35.240Z,2.60
2019-01-27T22:21:08.314Z,2.77
2019-01-27T22:23:41.720Z,2.00
2019-01-27T22:26:16.753Z,2.33
2019-01-27T22:28:49.845Z,1.93
2019-01-27T22:31:23.237Z,2.33
2019-01-27T22:33:58.008Z,1.83
2019-01-27T22:36:30.825Z,2.17
2019-01-27T22:39:06.354Z,2.20
2019-01-27T22:41:39.127Z,2.00
2019-01-27T22:44:11.826Z,2.03
2019-01-27T22:46:44.251Z,1.73
2019-01-27T22:49:15.785Z,2.50
2019-01-27T22:51:47.899Z,2.33
2019-01-27T22:54:19.579Z,2.40
2019-01-27T22:56:50.935Z,2.47
2019-01-27T22:59:22.644Z,2.20
2019-01-27T23:01:54.211Z,2.33
2019-01-27T23:04:25.731Z,2.23
2019-01-27T23:06:57.202Z,2.27
2019-01-27T23:09:28.841Z,2.43
2019-01-27T23:12:01.023Z,2.63
2019-01-27T23:14:32.623Z,2.30
2019-01-27T23:17:04.600Z,2.27
2019-01-27T23:19:36.355Z,2.63
2019-01-27T23:22:07.977Z,2.20
2019-01-27T23:24:40.095Z,2.53
2019-01-27T23:27:13.685Z,2.30
2019-01-27T23:29:45.717Z,2.37
2019-01-27T23:32:17.276Z,2.40
2019-01-27T23:34:49.087Z,2.13
2019-01-27T23:37:20.665Z,2.20
2019-01-27T23:39:54.184Z,2.10
2019-01-27T23:42:25.629Z,2.37
2019-01-27T23:44:57.320Z,2.10
2019-01-27T23:47:28.894Z,2.17
2019-01-27T23:50:00.416Z,2.50
2019-01-27T23:52:34.164Z,2.40
2019-01-27T23:55:06.093Z,2.00
2019-01-27T23:57:38.610Z,2.23
